createdAt,value
2023-05-09T00:01:50.277Z,44.56
2023-05-09T00:04:28.898Z,44.45
2023-05-09T00:07:02.899Z,44.63
2023-05-09T00:09:42.363Z,44.94
2023-05-09T00:12:30.049Z,45.10
2023-05-09T00:15:01.844Z,45.01
2023-05-09T00:17:34.556Z,45.08
2023-05-09T00:20:12.766Z,45.31
2023-05-09T00:22:47.536Z,45.69
2023-05-09T00:25:16.023Z,45.60
2023-05-09T00:27:54.750Z,45.53
2023-05-09T00:30:29.204Z,45.60
2023-05-09T00:33:00.626Z,45.65
2023-05-09T00:35:41.709Z,45.26
2023-05-09T00:38:14.045Z,45.23
2023-05-09T00:40:44.713Z,45.18
2023-05-09T00:43:14.800Z,45.09
2023-05-09T00:45:48.174Z,45.18
2023-05-09T00:48:18.984Z,45.04
2023-05-09T00:50:55.691Z,45.24
2023-05-09T00:53:30.334Z,45.46
2023-05-09T00:56:04.339Z,45.73
2023-05-09T00:58:58.758Z,46.02
2023-05-09T01:01:47.890Z,46.21
2023-05-09T01:05:07.963Z,46.34
2023-05-09T01:08:18.253Z,46.50
2023-05-09T01:11:35.206Z,46.61
2023-05-09T01:14:25.657Z,46.41
2023-05-09T01:21:23.984Z,46.35
2023-05-09T01:24:44.156Z,46.67
2023-05-09T01:27:51.018Z,46.32
2023-05-09T01:30:21.772Z,46.08
2023-05-09T01:33:05.891Z,46.46
2023-05-09T01:35:42.309Z,46.72
2023-05-09T01:38:44.765Z,47.16
2023-05-09T01:41:22.109Z,47.24
2023-05-09T01:44:23.302Z,47.24
2023-05-09T01:46:56.755Z,47.42
2023-05-09T01:49:34.575Z,47.58
2023-05-09T01:52:25.083Z,47.68
2023-05-09T01:54:55.056Z,47.55
2023-05-09T01:57:29.112Z,47.55
2023-05-09T02:00:04.112Z,47.80
2023-05-09T02:02:48.465Z,47.65
2023-05-09T02:05:38.212Z,47.78
2023-05-09T02:08:17.141Z,48.03
2023-05-09T02:10:52.115Z,47.91
2023-05-09T02:13:54.174Z,47.78
2023-05-09T02:16:33.372Z,47.68
2023-05-09T02:19:07.339Z,47.55
2023-05-09T02:21:44.188Z,47.45
2023-05-09T02:24:19.253Z,47.52
2023-05-09T02:26:59.810Z,47.40
2023-05-09T02:29:40.689Z,47.41
2023-05-09T02:32:16.677Z,47.47
2023-05-09T02:35:10.307Z,47.71
2023-05-09T02:37:45.135Z,47.54
2023-05-09T02:40:23.888Z,47.68
2023-05-09T02:43:14.981Z,47.59
2023-05-09T02:45:48.496Z,47.45
2023-05-09T02:48:37.519Z,47.58
2023-05-09T02:51:24.726Z,47.68
2023-05-09T02:54:01.467Z,47.43
2023-05-09T02:56:33.393Z,47.19
2023-05-09T02:59:04.350Z,47.14
2023-05-09T03:01:38.854Z,47.14
2023-05-09T03:04:33.982Z,47.17
2023-05-09T03:07:10.973Z,47.21
2023-05-09T03:12:59.448Z,47.12
2023-05-09T03:15:41.300Z,47.16
2023-05-09T03:18:14.226Z,47.11
2023-05-09T03:20:46.686Z,47.26
2023-05-09T03:23:52.565Z,47.30
2023-05-09T03:26:35.894Z,47.24
2023-05-09T03:29:32.110Z,47.22
2023-05-09T03:32:13.871Z,46.97
2023-05-09T03:35:10.876Z,46.84
2023-05-09T03:37:49.641Z,46.77
2023-05-09T03:40:21.002Z,46.80
2023-05-09T03:42:59.139Z,46.88
2023-05-09T03:45:36.722Z,46.97
2023-05-09T03:48:10.454Z,46.48
2023-05-09T03:50:43.309Z,46.54
2023-05-09T03:53:20.518Z,46.46
2023-05-09T03:55:53.273Z,46.45
2023-05-09T03:58:41.499Z,46.44
2023-05-09T04:01:22.233Z,46.64
2023-05-09T04:04:00.358Z,46.61
2023-05-09T04:06:35.311Z,46.77
2023-05-09T04:09:09.421Z,46.49
2023-05-09T04:12:09.473Z,46.31
2023-05-09T04:14:55.935Z,46.44
2023-05-09T04:17:35.546Z,46.47
2023-05-09T04:20:11.051Z,46.30
2023-05-09T04:23:16.671Z,46.10
2023-05-09T04:25:53.710Z,45.88
2023-05-09T04:28:37.676Z,45.98
2023-05-09T04:31:31.525Z,45.92
2023-05-09T04:34:02.107Z,45.53
2023-05-09T04:36:34.200Z,45.57
2023-05-09T04:39:12.112Z,45.12
2023-05-09T04:41:58.549Z,44.61
2023-05-09T04:44:35.500Z,44.33
2023-05-09T04:47:06.854Z,43.22
2023-05-09T04:49:49.825Z,42.93
2023-05-09T04:52:26.616Z,42.75
2023-05-09T04:55:02.716Z,42.64
2023-05-09T04:57:40.877Z,42.24
2023-05-09T05:00:30.611Z,41.62
2023-05-09T05:03:04.656Z,40.92
2023-05-09T05:05:46.135Z,41.13
2023-05-09T05:08:32.263Z,41.05
2023-05-09T05:11:07.901Z,40.30
2023-05-09T05:13:58.103Z,39.73
2023-05-09T05:16:39.124Z,39.49
2023-05-09T05:19:12.845Z,39.12
2023-05-09T05:21:45.062Z,38.92
2023-05-09T05:24:50.526Z,39.00
2023-05-09T05:27:21.424Z,39.26
2023-05-09T05:29:54.809Z,39.30
2023-05-09T05:32:34.462Z,38.33
2023-05-09T05:35:29.441Z,38.07
2023-05-09T05:38:05.965Z,37.66
2023-05-09T05:40:40.510Z,37.76
2023-05-09T05:43:23.050Z,37.06
2023-05-09T05:46:49.487Z,37.27
2023-05-09T05:49:53.014Z,36.86
2023-05-09T05:55:24.606Z,37.35
2023-05-09T05:58:00.119Z,37.04
2023-05-09T06:01:28.197Z,36.66
2023-05-09T06:04:31.763Z,36.07
2023-05-09T06:09:07.263Z,36.21
2023-05-09T06:11:40.131Z,34.83
2023-05-09T06:14:10.573Z,35.12
2023-05-09T06:16:52.542Z,35.00
2023-05-09T18:27:38.770Z,32.61
2023-05-09T18:33:39.001Z,32.98
2023-05-09T18:36:18.650Z,33.16
2023-05-09T18:40:15.040Z,33.28
2023-05-09T18:43:09.951Z,33.48
2023-05-09T18:46:02.789Z,33.56
2023-05-09T18:48:59.712Z,33.42
2023-05-09T18:56:43.267Z,33.25
2023-05-09T19:13:48.787Z,34.84
2023-05-09T19:34:07.852Z,33.99
2023-05-09T19:36:57.157Z,34.23
2023-05-09T19:40:02.637Z,34.46
2023-05-09T19:42:54.529Z,34.52
2023-05-09T19:50:39.220Z,35.69
2023-05-09T19:59:06.189Z,36.94
2023-05-09T20:17:11.426Z,38.18
2023-05-09T20:20:10.905Z,38.39
2023-05-09T20:22:58.319Z,38.35
2023-05-09T20:25:54.660Z,38.22
2023-05-09T20:28:50.214Z,37.98
2023-05-09T20:31:34.696Z,38.00
2023-05-09T20:35:07.038Z,38.20
2023-05-09T20:38:26.425Z,38.65
2023-05-09T20:41:33.248Z,38.64
2023-05-09T20:44:34.056Z,38.89
2023-05-09T20:47:57.074Z,38.88
2023-05-09T21:01:52.875Z,37.80
2023-05-09T21:04:36.494Z,37.59
2023-05-09T21:07:29.442Z,37.65
2023-05-09T21:10:02.787Z,37.35
2023-05-09T21:13:17.524Z,37.48
2023-05-09T21:17:06.796Z,37.88
2023-05-09T21:19:46.865Z,38.47
2023-05-09T21:25:50.160Z,38.21
2023-05-09T21:31:41.853Z,38.61
2023-05-09T21:39:08.574Z,38.89
2023-05-09T21:41:27.344Z,38.57
2023-05-09T21:45:10.839Z,38.61
2023-05-09T21:48:15.586Z,38.95
2023-05-09T21:51:18.727Z,39.04
2023-05-09T21:54:14.954Z,39.29
2023-05-09T21:56:49.483Z,39.18
2023-05-09T21:59:33.877Z,39.34
2023-05-09T22:02:14.499Z,39.30
2023-05-09T22:04:59.686Z,38.97
2023-05-09T22:11:02.136Z,39.08
2023-05-09T22:13:48.503Z,39.20
2023-05-09T22:17:28.072Z,39.03
2023-05-09T22:20:10.506Z,38.84
2023-05-09T22:29:35.131Z,39.57
2023-05-09T22:32:37.577Z,39.73
2023-05-09T22:38:33.675Z,39.89
2023-05-09T22:41:10.868Z,39.61
2023-05-09T22:47:14.945Z,39.30
2023-05-09T22:50:23.656Z,39.24
2023-05-09T22:56:50.380Z,39.25
2023-05-09T22:59:24.516Z,39.20
2023-05-09T23:02:06.650Z,39.19
2023-05-09T23:08:26.972Z,40.03
2023-05-09T23:11:02.788Z,39.80
2023-05-09T23:13:38.628Z,40.12
2023-05-09T23:16:08.905Z,40.60
2023-05-09T23:18:48.312Z,40.60
2023-05-09T23:21:45.551Z,40.10
2023-05-09T23:24:41.867Z,39.55
2023-05-09T23:24:54.413Z,40.18
2023-05-09T23:36:17.333Z,40.35
2023-05-09T23:42:12.150Z,40.14
2023-05-09T23:45:23.416Z,40.17
2023-05-09T23:48:07.483Z,39.95
2023-05-09T23:50:38.411Z,39.85
2023-05-09T23:53:09.506Z,40.23
2023-05-09T23:59:06.321Z,40.36
